sensor_id;sensor_type;location;lat;lon;timestamp;temperature;humidity
41668;DHT22;27356;50.920;5.350;2023-06-01T00:00:32;16.80;99.90
41668;DHT22;27356;50.920;5.350;2023-06-01T00:02:58;16.80;99.90
41668;DHT22;27356;50.920;5.350;2023-06-01T00:05:24;16.70;99.90
41668;DHT22;27356;50.920;5.350;2023-06-01T00:07:49;16.70;99.90
41668;DHT22;27356;50.920;5.350;2023-06-01T00:10:16;16.70;99.90
41668;DHT22;27356;50.920;5.350;2023-06-01T00:12:41;16.60;99.90
41668;DHT22;27356;50.920;5.350;2023-06-01T00:15:09;16.50;99.90
41668;DHT22;27356;50.920;5.350;2023-06-01T00:17:34;16.40;99.90
41668;DHT22;27356;50.920;5.350;2023-06-01T00:20:00;16.30;99.90
41668;DHT22;27356;50.920;5.350;2023-06-01T00:22:27;16.20;99.90
41668;DHT22;27356;50.920;5.350;2023-06-01T00:24:54;16.10;99.90
41668;DHT22;27356;50.920;5.350;2023-06-01T00:27:20;15.90;99.90
41668;DHT22;27356;50.920;5.350;2023-06-01T00:29:46;15.90;99.90
41668;DHT22;27356;50.920;5.350;2023-06-01T00:32:11;16.00;99.90
41668;DHT22;27356;50.920;5.350;2023-06-01T00:34:37;16.00;99.90
41668;DHT22;27356;50.920;5.350;2023-06-01T00:37:03;15.90;99.90
41668;DHT22;27356;50.920;5.350;2023-06-01T00:39:29;15.80;99.90
41668;DHT22;27356;50.920;5.350;2023-06-01T00:41:54;15.80;99.90
41668;DHT22;27356;50.920;5.350;2023-06-01T00:44:20;15.70;99.90
41668;DHT22;27356;50.920;5.350;2023-06-01T00:46:46;15.70;99.90
41668;DHT22;27356;50.920;5.350;2023-06-01T00:49:11;15.60;99.90
41668;DHT22;27356;50.920;5.350;2023-06-01T00:51:37;15.50;99.90
41668;DHT22;27356;50.920;5.350;2023-06-01T00:54:03;15.50;99.90
41668;DHT22;27356;50.920;5.350;2023-06-01T00:56:29;15.60;99.90
41668;DHT22;27356;50.920;5.350;2023-06-01T00:58:56;15.60;99.90
41668;DHT22;27356;50.920;5.350;2023-06-01T01:01:22;15.50;99.90
41668;DHT22;27356;50.920;5.350;2023-06-01T01:03:50;15.50;99.90
41668;DHT22;27356;50.920;5.350;2023-06-01T01:09:28;15.40;99.90
41668;DHT22;27356;50.920;5.350;2023-06-01T01:12:01;15.30;99.90
41668;DHT22;27356;50.920;5.350;2023-06-01T01:14:42;15.20;99.90
41668;DHT22;27356;50.920;5.350;2023-06-01T01:17:13;15.20;99.90
41668;DHT22;27356;50.920;5.350;2023-06-01T01:19:53;15.10;99.90
41668;DHT22;27356;50.920;5.350;2023-06-01T01:25:35;14.90;99.90
41668;DHT22;27356;50.920;5.350;2023-06-01T01:30:44;14.90;99.90
41668;DHT22;27356;50.920;5.350;2023-06-01T01:33:11;14.90;99.90
41668;DHT22;27356;50.920;5.350;2023-06-01T01:35:39;14.90;99.90
41668;DHT22;27356;50.920;5.350;2023-06-01T01:38:05;14.80;99.90
41668;DHT22;27356;50.920;5.350;2023-06-01T01:40:30;14.70;99.90
41668;DHT22;27356;50.920;5.350;2023-06-01T01:42:56;14.60;99.90
41668;DHT22;27356;50.920;5.350;2023-06-01T01:45:23;14.60;99.90
41668;DHT22;27356;50.920;5.350;2023-06-01T01:48:16;14.50;99.90
41668;DHT22;27356;50.920;5.350;2023-06-01T01:51:00;14.40;99.90
41668;DHT22;27356;50.920;5.350;2023-06-01T01:53:27;14.40;99.90
41668;DHT22;27356;50.920;5.350;2023-06-01T01:55:53;14.30;99.90
41668;DHT22;27356;50.920;5.350;2023-06-01T01:58:20;14.30;99.90
41668;DHT22;27356;50.920;5.350;2023-06-01T02:00:46;14.10;99.90
41668;DHT22;27356;50.920;5.350;2023-06-01T02:03:16;14.10;99.90
41668;DHT22;27356;50.920;5.350;2023-06-01T02:05:43;13.90;99.90
41668;DHT22;27356;50.920;5.350;2023-06-01T02:08:09;14.00;99.90
41668;DHT22;27356;50.920;5.350;2023-06-01T02:10:35;14.00;99.90
41668;DHT22;27356;50.920;5.350;2023-06-01T02:13:00;14.00;99.90
41668;DHT22;27356;50.920;5.350;2023-06-01T02:15:26;14.00;99.90
41668;DHT22;27356;50.920;5.350;2023-06-01T02:17:51;13.90;99.90
41668;DHT22;27356;50.920;5.350;2023-06-01T02:20:19;13.80;99.90
41668;DHT22;27356;50.920;5.350;2023-06-01T02:22:45;13.70;99.90
41668;DHT22;27356;50.920;5.350;2023-06-01T02:25:10;13.70;99.90
41668;DHT22;27356;50.920;5.350;2023-06-01T02:27:36;13.60;99.90
41668;DHT22;27356;50.920;5.350;2023-06-01T02:30:02;13.50;99.90
41668;DHT22;27356;50.920;5.350;2023-06-01T02:32:27;13.50;99.90
41668;DHT22;27356;50.920;5.350;2023-06-01T02:34:56;13.40;99.90
41668;DHT22;27356;50.920;5.350;2023-06-01T02:37:21;13.40;99.90
41668;DHT22;27356;50.920;5.350;2023-06-01T02:39:47;13.30;99.90
41668;DHT22;27356;50.920;5.350;2023-06-01T02:42:13;13.30;99.90
41668;DHT22;27356;50.920;5.350;2023-06-01T02:44:39;13.30;99.90
41668;DHT22;27356;50.920;5.350;2023-06-01T02:47:05;13.20;99.90
41668;DHT22;27356;50.920;5.350;2023-06-01T02:49:31;13.20;99.90
41668;DHT22;27356;50.920;5.350;2023-06-01T02:51:56;13.20;99.90
41668;DHT22;27356;50.920;5.350;2023-06-01T02:54:22;13.10;99.90
41668;DHT22;27356;50.920;5.350;2023-06-01T02:56:48;13.00;99.90
41668;DHT22;27356;50.920;5.350;2023-06-01T02:59:13;13.00;99.90
41668;DHT22;27356;50.920;5.350;2023-06-01T03:01:39;13.00;99.90
41668;DHT22;27356;50.920;5.350;2023-06-01T03:04:05;13.10;99.90
41668;DHT22;27356;50.920;5.350;2023-06-01T03:06:32;13.00;99.90
41668;DHT22;27356;50.920;5.350;2023-06-01T03:09:01;12.80;99.90
41668;DHT22;27356;50.920;5.350;2023-06-01T03:11:27;12.70;99.90
41668;DHT22;27356;50.920;5.350;2023-06-01T03:13:53;12.60;99.90
41668;DHT22;27356;50.920;5.350;2023-06-01T03:16:18;12.70;99.90
41668;DHT22;27356;50.920;5.350;2023-06-01T03:18:44;12.70;99.90
41668;DHT22;27356;50.920;5.350;2023-06-01T03:21:10;12.60;99.90
41668;DHT22;27356;50.920;5.350;2023-06-01T03:23:35;12.60;99.90
41668;DHT22;27356;50.920;5.350;2023-06-01T03:26:02;12.60;99.90
41668;DHT22;27356;50.920;5.350;2023-06-01T03:28:29;12.50;99.90
41668;DHT22;27356;50.920;5.350;2023-06-01T03:30:55;12.50;99.90
41668;DHT22;27356;50.920;5.350;2023-06-01T03:33:21;12.60;99.90
41668;DHT22;27356;50.920;5.350;2023-06-01T03:35:47;12.50;99.90
41668;DHT22;27356;50.920;5.350;2023-06-01T03:38:15;12.50;99.90
41668;DHT22;27356;50.920;5.350;2023-06-01T03:40:40;12.30;99.90
41668;DHT22;27356;50.920;5.350;2023-06-01T03:43:06;12.40;99.90
41668;DHT22;27356;50.920;5.350;2023-06-01T03:45:32;12.40;99.90
41668;DHT22;27356;50.920;5.350;2023-06-01T03:47:58;12.20;99.90
41668;DHT22;27356;50.920;5.350;2023-06-01T03:50:24;12.20;99.90
41668;DHT22;27356;50.920;5.350;2023-06-01T03:52:49;12.30;99.90
41668;DHT22;27356;50.920;5.350;2023-06-01T03:55:15;12.30;99.90
41668;DHT22;27356;50.920;5.350;2023-06-01T03:57:41;12.40;99.90
41668;DHT22;27356;50.920;5.350;2023-06-01T04:00:07;12.40;99.90
41668;DHT22;27356;50.920;5.350;2023-06-01T04:02:54;12.50;99.90
41668;DHT22;27356;50.920;5.350;2023-06-01T04:05:21;12.70;99.90
41668;DHT22;27356;50.920;5.350;2023-06-01T04:07:48;12.80;99.90
41668;DHT22;27356;50.920;5.350;2023-06-01T04:10:15;13.10;99.90
41668;DHT22;27356;50.920;5.350;2023-06-01T04:12:42;13.30;99.90
41668;DHT22;27356;50.920;5.350;2023-06-01T04:15:10;13.40;99.90
41668;DHT22;27356;50.920;5.350;2023-06-01T04:17:40;13.50;99.90
41668;DHT22;27356;50.920;5.350;2023-06-01T04:20:10;13.60;99.90
41668;DHT22;27356;50.920;5.350;2023-06-01T04:22:39;13.60;99.90
41668;DHT22;27356;50.920;5.350;2023-06-01T04:25:11;13.70;99.90
41668;DHT22;27356;50.920;5.350;2023-06-01T04:27:41;13.80;99.90
41668;DHT22;27356;50.920;5.350;2023-06-01T04:30:10;14.00;99.90
41668;DHT22;27356;50.920;5.350;2023-06-01T04:32:37;14.00;99.90
41668;DHT22;27356;50.920;5.350;2023-06-01T04:35:08;14.20;99.90
41668;DHT22;27356;50.920;5.350;2023-06-01T04:37:34;14.30;99.90
41668;DHT22;27356;50.920;5.350;2023-06-01T04:40:05;14.40;99.90
41668;DHT22;27356;50.920;5.350;2023-06-01T04:42:39;14.50;99.90
41668;DHT22;27356;50.920;5.350;2023-06-01T04:45:07;14.40;99.90
41668;DHT22;27356;50.920;5.350;2023-06-01T04:47:33;14.40;99.90
41668;DHT22;27356;50.920;5.350;2023-06-01T04:50:07;14.40;99.90
41668;DHT22;27356;50.920;5.350;2023-06-01T04:52:41;14.40;99.90
41668;DHT22;27356;50.920;5.350;2023-06-01T04:55:08;14.20;99.90
41668;DHT22;27356;50.920;5.350;2023-06-01T04:57:34;14.10;99.90
41668;DHT22;27356;50.920;5.350;2023-06-01T05:00:10;14.00;99.90
41668;DHT22;27356;50.920;5.350;2023-06-01T05:02:42;13.90;99.90
41668;DHT22;27356;50.920;5.350;2023-06-01T05:05:09;13.80;99.90
41668;DHT22;27356;50.920;5.350;2023-06-01T05:07:36;13.30;99.90
41668;DHT22;27356;50.920;5.350;2023-06-01T05:10:03;13.10;99.90
41668;DHT22;27356;50.920;5.350;2023-06-01T05:12:34;12.90;99.90
41668;DHT22;27356;50.920;5.350;2023-06-01T05:15:01;12.90;99.90
41668;DHT22;27356;50.920;5.350;2023-06-01T05:17:27;12.80;99.90
41668;DHT22;27356;50.920;5.350;2023-06-01T05:19:53;12.80;99.90
41668;DHT22;27356;50.920;5.350;2023-06-01T05:22:19;12.80;99.90
41668;DHT22;27356;50.920;5.350;2023-06-01T05:24:44;12.70;99.90
41668;DHT22;27356;50.920;5.350;2023-06-01T05:27:10;12.50;99.90
41668;DHT22;27356;50.920;5.350;2023-06-01T05:29:36;12.40;99.90
41668;DHT22;27356;50.920;5.350;2023-06-01T05:32:01;12.40;99.90
41668;DHT22;27356;50.920;5.350;2023-06-01T05:34:27;12.30;99.90
41668;DHT22;27356;50.920;5.350;2023-06-01T05:36:52;12.30;99.90
41668;DHT22;27356;50.920;5.350;2023-06-01T05:39:18;12.40;99.90
41668;DHT22;27356;50.920;5.350;2023-06-01T05:41:44;12.40;99.90
41668;DHT22;27356;50.920;5.350;2023-06-01T05:44:10;12.30;99.90
41668;DHT22;27356;50.920;5.350;2023-06-01T05:46:35;12.40;99.90
41668;DHT22;27356;50.920;5.350;2023-06-01T05:49:01;12.40;99.90
41668;DHT22;27356;50.920;5.350;2023-06-01T05:51:26;12.60;99.90
41668;DHT22;27356;50.920;5.350;2023-06-01T05:53:52;12.80;99.90
41668;DHT22;27356;50.920;5.350;2023-06-01T05:56:18;12.70;99.90
41668;DHT22;27356;50.920;5.350;2023-06-01T05:58:44;12.70;99.90
41668;DHT22;27356;50.920;5.350;2023-06-01T06:01:09;12.70;99.90
41668;DHT22;27356;50.920;5.350;2023-06-01T06:03:36;12.80;99.90
41668;DHT22;27356;50.920;5.350;2023-06-01T06:06:02;12.80;99.90
41668;DHT22;27356;50.920;5.350;2023-06-01T06:08:28;12.80;99.90
41668;DHT22;27356;50.920;5.350;2023-06-01T06:10:54;12.80;99.90
41668;DHT22;27356;50.920;5.350;2023-06-01T06:13:20;12.80;99.90
41668;DHT22;27356;50.920;5.350;2023-06-01T06:15:46;12.80;99.90
41668;DHT22;27356;50.920;5.350;2023-06-01T06:18:11;13.00;99.90
41668;DHT22;27356;50.920;5.350;2023-06-01T06:20:37;13.00;99.90
41668;DHT22;27356;50.920;5.350;2023-06-01T06:23:03;13.30;99.90
41668;DHT22;27356;50.920;5.350;2023-06-01T06:25:28;13.40;99.90
41668;DHT22;27356;50.920;5.350;2023-06-01T06:27:54;13.50;99.90
41668;DHT22;27356;50.920;5.350;2023-06-01T06:30:20;13.30;99.90
41668;DHT22;27356;50.920;5.350;2023-06-01T06:32:46;13.20;99.90
41668;DHT22;27356;50.920;5.350;2023-06-01T06:35:11;13.20;99.90
41668;DHT22;27356;50.920;5.350;2023-06-01T06:37:39;13.40;99.90
41668;DHT22;27356;50.920;5.350;2023-06-01T06:40:06;13.50;99.90
41668;DHT22;27356;50.920;5.350;2023-06-01T06:42:32;13.60;99.90
41668;DHT22;27356;50.920;5.350;2023-06-01T06:44:57;13.80;99.90
41668;DHT22;27356;50.920;5.350;2023-06-01T06:47:23;13.80;99.90
41668;DHT22;27356;50.920;5.350;2023-06-01T06:49:50;13.60;99.90
41668;DHT22;27356;50.920;5.350;2023-06-01T06:52:16;13.50;99.90
41668;DHT22;27356;50.920;5.350;2023-06-01T06:54:42;13.50;99.90
41668;DHT22;27356;50.920;5.350;2023-06-01T06:57:08;13.60;99.90
41668;DHT22;27356;50.920;5.350;2023-06-01T06:59:34;13.60;99.90
41668;DHT22;27356;50.920;5.350;2023-06-01T07:02:00;13.70;99.90
41668;DHT22;27356;50.920;5.350;2023-06-01T07:04:28;14.20;99.90
41668;DHT22;27356;50.920;5.350;2023-06-01T07:06:54;15.10;99.90
41668;DHT22;27356;50.920;5.350;2023-06-01T07:09:20;16.00;99.90
41668;DHT22;27356;50.920;5.350;2023-06-01T07:11:45;16.40;99.90
41668;DHT22;27356;50.920;5.350;2023-06-01T07:14:16;16.90;99.90
41668;DHT22;27356;50.920;5.350;2023-06-01T07:16:41;17.10;99.70
41668;DHT22;27356;50.920;5.350;2023-06-01T07:19:07;16.80;99.80
41668;DHT22;27356;50.920;5.350;2023-06-01T07:21:33;16.40;99.90
41668;DHT22;27356;50.920;5.350;2023-06-01T07:23:59;16.70;99.90
41668;DHT22;27356;50.920;5.350;2023-06-01T07:26:25;17.00;99.90
41668;DHT22;27356;50.920;5.350;2023-06-01T07:28:52;18.00;99.60
41668;DHT22;27356;50.920;5.350;2023-06-01T07:31:19;18.50;97.10
41668;DHT22;27356;50.920;5.350;2023-06-01T07:33:45;18.80;97.00
41668;DHT22;27356;50.920;5.350;2023-06-01T07:36:11;19.10;95.10
41668;DHT22;27356;50.920;5.350;2023-06-01T07:38:37;18.20;96.60
41668;DHT22;27356;50.920;5.350;2023-06-01T07:41:02;18.70;96.50
41668;DHT22;27356;50.920;5.350;2023-06-01T07:43:28;20.00;95.20
41668;DHT22;27356;50.920;5.350;2023-06-01T07:45:55;21.30;92.70
41668;DHT22;27356;50.920;5.350;2023-06-01T07:48:21;21.80;92.00
41668;DHT22;27356;50.920;5.350;2023-06-01T07:50:46;21.90;91.20
41668;DHT22;27356;50.920;5.350;2023-06-01T07:53:12;21.70;91.00
41668;DHT22;27356;50.920;5.350;2023-06-01T07:55:38;21.00;91.50
41668;DHT22;27356;50.920;5.350;2023-06-01T07:58:04;20.90;91.90
41668;DHT22;27356;50.920;5.350;2023-06-01T08:00:30;21.50;91.40
41668;DHT22;27356;50.920;5.350;2023-06-01T08:02:56;22.60;90.00
41668;DHT22;27356;50.920;5.350;2023-06-01T08:05:24;23.30;88.40
41668;DHT22;27356;50.920;5.350;2023-06-01T08:07:50;23.80;87.00
41668;DHT22;27356;50.920;5.350;2023-06-01T08:10:16;23.50;86.00
41668;DHT22;27356;50.920;5.350;2023-06-01T08:12:41;23.50;86.70
41668;DHT22;27356;50.920;5.350;2023-06-01T08:15:10;24.40;85.20
41668;DHT22;27356;50.920;5.350;2023-06-01T08:17:36;24.90;84.80
41668;DHT22;27356;50.920;5.350;2023-06-01T08:20:03;24.70;84.60
41668;DHT22;27356;50.920;5.350;2023-06-01T08:22:36;23.90;84.40
41668;DHT22;27356;50.920;5.350;2023-06-01T08:25:02;23.90;84.80
41668;DHT22;27356;50.920;5.350;2023-06-01T08:27:27;23.20;84.60
41668;DHT22;27356;50.920;5.350;2023-06-01T08:29:54;23.30;86.60
41668;DHT22;27356;50.920;5.350;2023-06-01T08:32:19;24.90;83.30
41668;DHT22;27356;50.920;5.350;2023-06-01T08:34:46;25.60;80.90
41668;DHT22;27356;50.920;5.350;2023-06-01T08:37:12;25.60;79.80
41668;DHT22;27356;50.920;5.350;2023-06-01T08:39:41;25.80;79.50
41668;DHT22;27356;50.920;5.350;2023-06-01T08:44:44;25.80;78.40
41668;DHT22;27356;50.920;5.350;2023-06-01T08:47:11;26.00;78.70
41668;DHT22;27356;50.920;5.350;2023-06-01T08:49:41;26.00;78.00
41668;DHT22;27356;50.920;5.350;2023-06-01T08:52:12;26.20;78.00
41668;DHT22;27356;50.920;5.350;2023-06-01T08:54:38;26.20;78.60
41668;DHT22;27356;50.920;5.350;2023-06-01T08:57:06;27.00;77.80
41668;DHT22;27356;50.920;5.350;2023-06-01T08:59:35;27.70;75.70
41668;DHT22;27356;50.920;5.350;2023-06-01T09:02:01;28.10;75.80
41668;DHT22;27356;50.920;5.350;2023-06-01T09:04:28;27.80;73.80
41668;DHT22;27356;50.920;5.350;2023-06-01T09:06:56;27.60;74.40
41668;DHT22;27356;50.920;5.350;2023-06-01T09:09:22;28.50;74.20
41668;DHT22;27356;50.920;5.350;2023-06-01T09:11:47;28.10;73.70
41668;DHT22;27356;50.920;5.350;2023-06-01T09:14:23;28.30;73.80
41668;DHT22;27356;50.920;5.350;2023-06-01T09:16:50;28.10;74.20
41668;DHT22;27356;50.920;5.350;2023-06-01T09:19:17;27.70;73.20
41668;DHT22;27356;50.920;5.350;2023-06-01T09:21:59;27.50;73.80
41668;DHT22;27356;50.920;5.350;2023-06-01T09:24:25;28.20;74.00
41668;DHT22;27356;50.920;5.350;2023-06-01T09:26:58;27.80;72.30
41668;DHT22;27356;50.920;5.350;2023-06-01T09:29:25;27.30;73.10
41668;DHT22;27356;50.920;5.350;2023-06-01T09:31:52;26.20;74.20
41668;DHT22;27356;50.920;5.350;2023-06-01T09:34:19;25.80;75.50
41668;DHT22;27356;50.920;5.350;2023-06-01T09:39:17;25.50;75.50
41668;DHT22;27356;50.920;5.350;2023-06-01T09:41:56;25.90;74.10
41668;DHT22;27356;50.920;5.350;2023-06-01T09:44:33;25.60;74.80
41668;DHT22;27356;50.920;5.350;2023-06-01T09:47:04;26.00;73.80
41668;DHT22;27356;50.920;5.350;2023-06-01T09:49:37;26.00;74.60
41668;DHT22;27356;50.920;5.350;2023-06-01T09:54:34;26.30;73.70
41668;DHT22;27356;50.920;5.350;2023-06-01T09:57:01;25.60;74.50
41668;DHT22;27356;50.920;5.350;2023-06-01T09:59:28;25.60;74.50
41668;DHT22;27356;50.920;5.350;2023-06-01T10:01:58;25.40;75.90
41668;DHT22;27356;50.920;5.350;2023-06-01T10:04:27;26.30;72.40
41668;DHT22;27356;50.920;5.350;2023-06-01T10:06:55;26.00;72.30
41668;DHT22;27356;50.920;5.350;2023-06-01T10:09:25;25.60;73.20
41668;DHT22;27356;50.920;5.350;2023-06-01T10:11:55;25.40;73.50
41668;DHT22;27356;50.920;5.350;2023-06-01T10:14:22;25.20;74.60
41668;DHT22;27356;50.920;5.350;2023-06-01T10:16:50;24.80;74.00
41668;DHT22;27356;50.920;5.350;2023-06-01T10:19:17;24.00;75.70
41668;DHT22;27356;50.920;5.350;2023-06-01T10:21:43;23.60;76.90
41668;DHT22;27356;50.920;5.350;2023-06-01T10:24:11;23.60;77.90
41668;DHT22;27356;50.920;5.350;2023-06-01T10:26:44;23.20;78.90
41668;DHT22;27356;50.920;5.350;2023-06-01T10:29:13;23.60;78.20
41668;DHT22;27356;50.920;5.350;2023-06-01T10:31:40;23.60;76.40
41668;DHT22;27356;50.920;5.350;2023-06-01T10:34:10;23.40;75.30
41668;DHT22;27356;50.920;5.350;2023-06-01T10:39:28;22.80;78.60
41668;DHT22;27356;50.920;5.350;2023-06-01T10:41:56;22.90;77.40
41668;DHT22;27356;50.920;5.350;2023-06-01T10:52:38;22.20;78.50
41668;DHT22;27356;50.920;5.350;2023-06-01T10:57:31;21.90;80.10
41668;DHT22;27356;50.920;5.350;2023-06-01T11:10:59;22.00;79.70
41668;DHT22;27356;50.920;5.350;2023-06-01T11:13:32;22.40;79.40
41668;DHT22;27356;50.920;5.350;2023-06-01T11:21:25;22.30;78.70
41668;DHT22;27356;50.920;5.350;2023-06-01T11:23:52;22.40;79.80
41668;DHT22;27356;50.920;5.350;2023-06-01T11:26:55;22.20;81.00
41668;DHT22;27356;50.920;5.350;2023-06-01T11:31:50;22.10;79.80
41668;DHT22;27356;50.920;5.350;2023-06-01T11:34:18;22.00;80.90
41668;DHT22;27356;50.920;5.350;2023-06-01T11:36:49;22.00;80.80
41668;DHT22;27356;50.920;5.350;2023-06-01T11:39:34;22.10;79.80
41668;DHT22;27356;50.920;5.350;2023-06-01T11:42:11;22.20;80.20
41668;DHT22;27356;50.920;5.350;2023-06-01T11:44:42;22.40;81.40
41668;DHT22;27356;50.920;5.350;2023-06-01T11:47:10;22.10;81.00
41668;DHT22;27356;50.920;5.350;2023-06-01T11:49:43;21.90;81.80
41668;DHT22;27356;50.920;5.350;2023-06-01T11:52:10;22.00;82.00
41668;DHT22;27356;50.920;5.350;2023-06-01T11:54:36;22.00;80.40
41668;DHT22;27356;50.920;5.350;2023-06-01T11:57:03;22.20;79.40
41668;DHT22;27356;50.920;5.350;2023-06-01T11:59:46;22.20;79.90
41668;DHT22;27356;50.920;5.350;2023-06-01T12:02:21;22.40;79.90
41668;DHT22;27356;50.920;5.350;2023-06-01T12:07:42;22.60;76.90
41668;DHT22;27356;50.920;5.350;2023-06-01T12:10:11;22.50;77.10
41668;DHT22;27356;50.920;5.350;2023-06-01T12:12:37;22.40;77.50
41668;DHT22;27356;50.920;5.350;2023-06-01T12:15:03;22.30;77.70
41668;DHT22;27356;50.920;5.350;2023-06-01T12:17:49;22.50;78.60
41668;DHT22;27356;50.920;5.350;2023-06-01T12:20:31;22.70;78.60
41668;DHT22;27356;50.920;5.350;2023-06-01T12:25:49;22.40;79.10
41668;DHT22;27356;50.920;5.350;2023-06-01T12:28:16;22.30;78.70
41668;DHT22;27356;50.920;5.350;2023-06-01T12:30:43;22.40;81.00
41668;DHT22;27356;50.920;5.350;2023-06-01T12:33:09;22.50;79.00
41668;DHT22;27356;50.920;5.350;2023-06-01T12:35:50;22.60;78.60
41668;DHT22;27356;50.920;5.350;2023-06-01T12:38:16;22.90;80.00
41668;DHT22;27356;50.920;5.350;2023-06-01T12:40:42;22.80;77.40
41668;DHT22;27356;50.920;5.350;2023-06-01T12:43:17;22.60;77.50
41668;DHT22;27356;50.920;5.350;2023-06-01T12:45:44;22.30;77.90
41668;DHT22;27356;50.920;5.350;2023-06-01T12:48:29;22.20;76.40
41668;DHT22;27356;50.920;5.350;2023-06-01T12:50:55;22.20;77.90
41668;DHT22;27356;50.920;5.350;2023-06-01T12:53:21;22.30;76.50
41668;DHT22;27356;50.920;5.350;2023-06-01T12:55:47;22.00;76.90
41668;DHT22;27356;50.920;5.350;2023-06-01T12:58:12;22.10;76.70
41668;DHT22;27356;50.920;5.350;2023-06-01T13:00:38;22.10;76.00
41668;DHT22;27356;50.920;5.350;2023-06-01T13:03:04;22.20;76.70
41668;DHT22;27356;50.920;5.350;2023-06-01T13:05:30;22.10;77.10
41668;DHT22;27356;50.920;5.350;2023-06-01T13:07:56;22.10;78.60
41668;DHT22;27356;50.920;5.350;2023-06-01T13:10:23;22.00;78.90
41668;DHT22;27356;50.920;5.350;2023-06-01T13:12:48;22.00;78.20
41668;DHT22;27356;50.920;5.350;2023-06-01T13:15:14;22.10;77.70
41668;DHT22;27356;50.920;5.350;2023-06-01T13:17:39;21.90;77.10
41668;DHT22;27356;50.920;5.350;2023-06-01T13:20:06;22.00;77.10
41668;DHT22;27356;50.920;5.350;2023-06-01T13:22:32;21.90;75.70
41668;DHT22;27356;50.920;5.350;2023-06-01T13:24:58;21.80;77.30
41668;DHT22;27356;50.920;5.350;2023-06-01T13:27:25;21.90;78.00
41668;DHT22;27356;50.920;5.350;2023-06-01T13:29:51;22.00;78.10
41668;DHT22;27356;50.920;5.350;2023-06-01T13:32:16;22.00;76.80
41668;DHT22;27356;50.920;5.350;2023-06-01T13:34:42;22.00;77.30
41668;DHT22;27356;50.920;5.350;2023-06-01T13:37:07;22.00;78.20
41668;DHT22;27356;50.920;5.350;2023-06-01T13:39:33;22.10;80.10
41668;DHT22;27356;50.920;5.350;2023-06-01T13:41:59;22.30;77.50
41668;DHT22;27356;50.920;5.350;2023-06-01T13:44:26;22.50;77.90
41668;DHT22;27356;50.920;5.350;2023-06-01T13:46:51;22.70;76.50
41668;DHT22;27356;50.920;5.350;2023-06-01T13:49:17;22.70;76.20
41668;DHT22;27356;50.920;5.350;2023-06-01T13:51:43;22.70;75.90
41668;DHT22;27356;50.920;5.350;2023-06-01T13:54:08;22.70;78.30
41668;DHT22;27356;50.920;5.350;2023-06-01T13:56:35;22.70;76.60
41668;DHT22;27356;50.920;5.350;2023-06-01T13:59:01;22.80;76.10
41668;DHT22;27356;50.920;5.350;2023-06-01T14:01:28;22.90;75.30
41668;DHT22;27356;50.920;5.350;2023-06-01T14:03:53;22.90;75.50
41668;DHT22;27356;50.920;5.350;2023-06-01T14:06:19;22.70;76.10
41668;DHT22;27356;50.920;5.350;2023-06-01T14:08:46;22.60;77.00
41668;DHT22;27356;50.920;5.350;2023-06-01T14:11:14;22.70;75.50
41668;DHT22;27356;50.920;5.350;2023-06-01T14:13:40;22.70;77.50
41668;DHT22;27356;50.920;5.350;2023-06-01T14:16:06;22.90;77.40
41668;DHT22;27356;50.920;5.350;2023-06-01T14:18:32;23.00;76.20
41668;DHT22;27356;50.920;5.350;2023-06-01T14:20:57;22.90;75.80
41668;DHT22;27356;50.920;5.350;2023-06-01T14:23:25;22.80;76.30
41668;DHT22;27356;50.920;5.350;2023-06-01T14:25:51;22.80;73.50
41668;DHT22;27356;50.920;5.350;2023-06-01T14:28:16;22.70;74.90
41668;DHT22;27356;50.920;5.350;2023-06-01T14:30:42;22.70;75.60
41668;DHT22;27356;50.920;5.350;2023-06-01T14:33:09;22.80;75.60
41668;DHT22;27356;50.920;5.350;2023-06-01T14:35:36;22.80;75.90
41668;DHT22;27356;50.920;5.350;2023-06-01T14:38:02;22.90;76.60
41668;DHT22;27356;50.920;5.350;2023-06-01T14:40:34;22.90;76.30
41668;DHT22;27356;50.920;5.350;2023-06-01T14:42:59;22.90;75.90
41668;DHT22;27356;50.920;5.350;2023-06-01T14:45:25;22.90;74.00
41668;DHT22;27356;50.920;5.350;2023-06-01T14:47:52;22.80;73.60
41668;DHT22;27356;50.920;5.350;2023-06-01T14:50:19;22.70;74.20
41668;DHT22;27356;50.920;5.350;2023-06-01T14:52:45;22.60;75.70
41668;DHT22;27356;50.920;5.350;2023-06-01T14:55:11;22.60;75.60
41668;DHT22;27356;50.920;5.350;2023-06-01T14:57:36;22.60;75.50
41668;DHT22;27356;50.920;5.350;2023-06-01T15:00:03;22.50;76.70
41668;DHT22;27356;50.920;5.350;2023-06-01T15:02:30;22.50;76.60
41668;DHT22;27356;50.920;5.350;2023-06-01T15:04:56;22.60;76.90
41668;DHT22;27356;50.920;5.350;2023-06-01T15:07:21;22.50;77.20
41668;DHT22;27356;50.920;5.350;2023-06-01T15:09:47;22.40;78.90
41668;DHT22;27356;50.920;5.350;2023-06-01T15:12:14;22.50;78.90
41668;DHT22;27356;50.920;5.350;2023-06-01T15:14:40;22.50;76.80
41668;DHT22;27356;50.920;5.350;2023-06-01T15:17:06;22.50;77.90
41668;DHT22;27356;50.920;5.350;2023-06-01T15:19:31;22.50;77.10
41668;DHT22;27356;50.920;5.350;2023-06-01T15:21:57;22.40;76.60
41668;DHT22;27356;50.920;5.350;2023-06-01T15:24:23;22.30;76.70
41668;DHT22;27356;50.920;5.350;2023-06-01T15:26:48;22.40;77.80
41668;DHT22;27356;50.920;5.350;2023-06-01T15:29:15;22.30;77.50
41668;DHT22;27356;50.920;5.350;2023-06-01T15:31:40;22.20;78.30
41668;DHT22;27356;50.920;5.350;2023-06-01T15:34:06;22.30;77.20
41668;DHT22;27356;50.920;5.350;2023-06-01T15:36:32;22.30;77.40
41668;DHT22;27356;50.920;5.350;2023-06-01T15:38:58;22.20;77.20
41668;DHT22;27356;50.920;5.350;2023-06-01T15:41:23;22.30;78.50
41668;DHT22;27356;50.920;5.350;2023-06-01T15:43:49;22.30;78.00
41668;DHT22;27356;50.920;5.350;2023-06-01T15:46:17;22.30;77.80
41668;DHT22;27356;50.920;5.350;2023-06-01T15:48:43;22.40;78.30
41668;DHT22;27356;50.920;5.350;2023-06-01T15:51:09;22.50;78.30
41668;DHT22;27356;50.920;5.350;2023-06-01T15:53:35;22.50;76.80
41668;DHT22;27356;50.920;5.350;2023-06-01T15:56:00;22.40;78.30
41668;DHT22;27356;50.920;5.350;2023-06-01T15:58:26;22.30;78.60
41668;DHT22;27356;50.920;5.350;2023-06-01T16:00:52;22.20;79.90
41668;DHT22;27356;50.920;5.350;2023-06-01T16:03:18;22.20;79.20
41668;DHT22;27356;50.920;5.350;2023-06-01T16:05:44;22.10;78.10
41668;DHT22;27356;50.920;5.350;2023-06-01T16:08:09;22.20;78.10
41668;DHT22;27356;50.920;5.350;2023-06-01T16:10:35;22.20;79.20
41668;DHT22;27356;50.920;5.350;2023-06-01T16:13:01;22.30;78.30
41668;DHT22;27356;50.920;5.350;2023-06-01T16:15:26;22.20;77.70
41668;DHT22;27356;50.920;5.350;2023-06-01T16:17:52;22.00;77.80
41668;DHT22;27356;50.920;5.350;2023-06-01T16:20:18;21.90;78.80
41668;DHT22;27356;50.920;5.350;2023-06-01T16:22:44;21.90;77.80
41668;DHT22;27356;50.920;5.350;2023-06-01T16:25:09;21.80;79.00